Time;durP1;ratioP1;P1;durP2;ratioP2;P2;SDS_P1;SDS_P2;PMS_P1;PMS_P2;Temp;Humidity;BMP_temperature;BMP_pressure;BME280_temperature;BME280_humidity;BME280_pressure;Samples;Min_cycle;Max_cycle;Signal;HPM_P1;HPM_P2
2023/10/31 00:04:01;;;;;;;2.00;1.60;;;;;;;12.18;100.00;96644.88;15274268;19;20477;-52
2023/10/31 00:09:25;;;;;;;2.22;1.88;;;;;;;12.11;100.00;96656.75;15270793;19;20010;-51
2023/10/31 00:14:53;;;;;;;2.70;2.20;;;;;;;12.06;100.00;96668.19;15273140;19;20038;-48
2023/10/31 00:20:17;;;;;;;3.13;1.83;;;;;;;12.02;100.00;96673.19;15274701;19;20615;-48
2023/10/31 00:25:42;;;;;;;3.97;2.13;;;;;;;12.01;100.00;96687.72;15272804;19;20077;-49
2023/10/31 00:31:11;;;;;;;4.18;2.20;;;;;;;12.00;100.00;96686.06;15274329;19;20029;-48
2023/10/31 00:36:36;;;;;;;5.00;2.40;;;;;;;11.99;100.00;96687.13;15275786;19;20085;-51
2023/10/31 00:42:00;;;;;;;3.78;2.08;;;;;;;11.98;100.00;96690.84;15267033;19;20013;-50
2023/10/31 00:47:28;;;;;;;2.53;2.30;;;;;;;11.99;100.00;96681.72;15274174;19;20025;-49
2023/10/31 00:52:52;;;;;;;2.47;1.90;;;;;;;11.97;100.00;96686.47;15273187;19;20085;-48
2023/10/31 00:58:18;;;;;;;2.88;2.47;;;;;;;11.96;100.00;96676.69;15273122;19;20376;-50
2023/10/31 01:03:45;;;;;;;3.25;2.05;;;;;;;11.95;100.00;96690.41;15270334;19;20014;-48
2023/10/31 01:09:11;;;;;;;2.92;1.98;;;;;;;11.93;100.00;96696.03;15273655;19;20505;-51
2023/10/31 01:14:36;;;;;;;2.70;2.13;;;;;;;11.95;100.00;96693.13;15263508;19;20025;-49
2023/10/31 01:20:04;;;;;;;3.80;2.35;;;;;;;11.94;100.00;96702.25;15272645;19;20082;-51
2023/10/31 01:25:28;;;;;;;3.65;2.65;;;;;;;11.89;100.00;96702.91;15266577;19;20524;-48
2023/10/31 01:30:54;;;;;;;3.65;2.60;;;;;;;11.86;100.00;96719.50;15273145;19;20598;-48
2023/10/31 01:36:21;;;;;;;3.40;2.40;;;;;;;11.83;100.00;96723.47;15271316;19;20082;-48
2023/10/31 01:41:46;;;;;;;3.50;2.13;;;;;;;11.86;100.00;96724.91;15270128;19;20022;-48
2023/10/31 01:47:11;;;;;;;3.13;2.28;;;;;;;11.87;100.00;96723.84;15264770;19;20635;-48
2023/10/31 01:52:39;;;;;;;3.13;2.25;;;;;;;11.89;100.00;96716.38;15269207;19;20014;-48
2023/10/31 01:58:05;;;;;;;2.83;1.80;;;;;;;11.90;100.00;96715.34;15270503;19;20018;-47
2023/10/31 02:03:30;;;;;;;2.35;2.15;;;;;;;11.92;100.00;96720.53;15260097;19;20478;-48
2023/10/31 02:08:58;;;;;;;2.03;1.50;;;;;;;11.90;100.00;96711.81;15266569;19;20022;-48
2023/10/31 02:14:23;;;;;;;2.45;1.20;;;;;;;11.92;100.00;96710.56;15261300;19;20018;-49
2023/10/31 02:19:47;;;;;;;1.60;1.20;;;;;;;11.96;100.00;96719.06;15260250;19;20086;-49
2023/10/31 02:25:25;;;;;;;2.08;1.30;;;;;;;11.95;100.00;96709.31;15267230;19;20355;-50
2023/10/31 02:30:49;;;;;;;1.67;1.58;;;;;;;11.95;100.00;96706.59;15268512;19;20039;-50
2023/10/31 02:36:15;;;;;;;2.72;1.60;;;;;;;11.93;100.00;96679.00;15266658;19;20375;-48
2023/10/31 02:41:42;;;;;;;3.15;1.65;;;;;;;11.88;100.00;96693.13;15267211;19;20505;-51
2023/10/31 02:47:07;;;;;;;2.45;1.40;;;;;;;11.87;100.00;96694.19;15267601;19;20468;-52
2023/10/31 02:52:31;;;;;;;2.28;1.48;;;;;;;11.85;100.00;96698.94;15258116;19;20086;-50
2023/10/31 02:57:59;;;;;;;4.05;1.63;;;;;;;11.80;100.00;96712.25;15273163;19;20386;-48
2023/10/31 03:03:24;;;;;;;1.55;1.40;;;;;;;11.76;100.00;96717.22;15278699;19;20042;-49
2023/10/31 03:08:49;;;;;;;1.65;1.40;;;;;;;11.72;100.00;96716.81;15281199;19;20035;-50
2023/10/31 03:14:16;;;;;;;2.13;1.42;;;;;;;11.75;100.00;96730.94;15275273;19;20022;-50
2023/10/31 03:19:41;;;;;;;1.63;1.30;;;;;;;11.76;100.00;96732.59;15278249;19;20086;-49
2023/10/31 03:25:13;;;;;;;2.22;1.30;;;;;;;11.74;100.00;96726.56;15273738;19;20039;-48
2023/10/31 03:30:42;;;;;;;2.08;1.30;;;;;;;11.72;100.00;96727.63;15277483;19;20011;-47
2023/10/31 03:36:09;;;;;;;1.55;1.20;;;;;;;11.75;100.00;96736.34;15274870;19;20535;-48
2023/10/31 03:41:33;;;;;;;3.67;1.00;;;;;;;11.74;100.00;96749.00;15279420;19;20021;-49
2023/10/31 03:47:02;;;;;;;1.30;1.20;;;;;;;11.79;100.00;96753.75;15276652;19;20034;-47
2023/10/31 03:52:26;;;;;;;1.63;1.20;;;;;;;11.80;100.00;96750.03;15275020;19;20023;-48
2023/10/31 03:57:51;;;;;;;2.70;1.20;;;;;;;11.80;100.00;96750.03;15269336;19;20027;-50
2023/10/31 04:03:18;;;;;;;1.08;1.00;;;;;;;11.77;100.00;96753.13;15272052;19;20520;-49
2023/10/31 04:08:43;;;;;;;1.27;0.68;;;;;;;11.75;100.00;96768.69;15245671;19;20010;-48
2023/10/31 04:14:08;;;;;;;0.65;0.65;;;;;;;11.69;100.00;96749.63;15273207;19;20015;-50
2023/10/31 04:19:36;;;;;;;2.40;0.60;;;;;;;11.66;100.00;96747.34;15277655;19;20385;-56
2023/10/31 04:25:00;;;;;;;1.27;0.50;;;;;;;11.64;100.00;96752.13;15269226;19;20011;-54
2023/10/31 04:30:26;;;;;;;0.40;0.30;;;;;;;11.66;100.00;96766.22;15271665;19;20658;-55
2023/10/31 04:35:54;;;;;;;1.40;0.20;;;;;;;11.66;100.00;96760.00;15272406;19;20014;-53
2023/10/31 04:41:19;;;;;;;0.52;0.10;;;;;;;11.63;100.00;96763.13;15273881;19;20089;-55
2023/10/31 04:46:43;;;;;;;0.20;0.20;;;;;;;11.59;100.00;96748.41;15274782;19;20086;-56
2023/10/31 04:52:12;;;;;;;0.13;0.13;;;;;;;11.55;100.00;96727.22;15273312;19;20070;-56
2023/10/31 04:57:37;;;;;;;0.22;0.13;;;;;;;11.55;100.00;96742.59;15273528;19;20029;-56
2023/10/31 05:03:02;;;;;;;0.30;0.20;;;;;;;11.54;100.00;96730.16;15267053;19;20096;-53
2023/10/31 05:08:30;;;;;;;0.10;0.10;;;;;;;11.53;100.00;96732.00;15274333;19;20019;-55
2023/10/31 05:13:55;;;;;;;0.10;0.10;;;;;;;11.53;100.00;96728.47;15270038;19;20017;-54
2023/10/31 05:19:20;;;;;;;0.20;0.20;;;;;;;11.45;100.00;96718.75;15271298;19;20018;-53
2023/10/31 05:24:47;;;;;;;0.35;0.10;;;;;;;11.36;100.00;96715.41;15271814;19;20105;-54
2023/10/31 05:30:15;;;;;;;1.88;0.20;;;;;;;11.22;100.00;96697.63;15273230;19;20086;-55
2023/10/31 05:35:40;;;;;;;0.20;0.20;;;;;;;11.07;100.00;96722.91;15265980;19;20017;-55
2023/10/31 05:41:11;;;;;;;0.32;0.17;;;;;;;10.94;100.00;96720.19;15271291;19;20050;-53
2023/10/31 05:46:36;;;;;;;0.28;0.10;;;;;;;10.84;100.00;96742.13;15270670;19;20022;-54
2023/10/31 05:52:01;;;;;;;0.73;0.10;;;;;;;10.78;100.00;96732.19;15269214;19;20014;-54
2023/10/31 05:57:28;;;;;;;0.63;0.10;;;;;;;10.72;100.00;96727.59;15268605;19;20024;-54
2023/10/31 06:02:53;;;;;;;0.32;0.10;;;;;;;10.61;100.00;96735.25;15268271;19;20536;-56
2023/10/31 06:08:18;;;;;;;1.83;0.20;;;;;;;10.54;100.00;96733.56;15268168;19;20357;-56
2023/10/31 06:13:47;;;;;;;0.13;0.10;;;;;;;10.45;100.00;96747.22;15266943;19;20025;-53
2023/10/31 06:19:13;;;;;;;0.75;0.17;;;;;;;10.39;100.00;96772.28;15270032;19;20035;-55
2023/10/31 06:24:39;;;;;;;0.20;0.10;;;;;;;10.31;100.00;96773.22;15268394;19;20029;-53
2023/10/31 06:30:07;;;;;;;0.75;0.10;;;;;;;10.32;100.00;96776.75;15273007;19;20366;-55
2023/10/31 06:35:44;;;;;;;0.28;0.15;;;;;;;10.32;100.00;96779.44;15275868;19;20389;-51
2023/10/31 06:41:09;;;;;;;0.10;0.10;;;;;;;10.33;100.00;96781.09;15276645;19;20351;-53
2023/10/31 06:46:36;;;;;;;3.92;0.10;;;;;;;10.36;100.00;96798.69;15282783;19;20694;-51
2023/10/31 06:52:01;;;;;;;0.10;0.10;;;;;;;10.38;100.00;96808.28;15280019;19;20047;-54
2023/10/31 06:57:27;;;;;;;0.73;0.20;;;;;;;10.42;100.00;96804.16;15281540;19;20343;-53
2023/10/31 07:02:54;;;;;;;0.10;0.10;;;;;;;10.49;100.00;96814.94;15278274;19;20030;-57
2023/10/31 07:08:19;;;;;;;1.75;0.25;;;;;;;10.53;100.00;96807.28;15276278;19;20376;-57
2023/10/31 07:13:44;;;;;;;0.38;0.13;;;;;;;10.56;100.00;96823.91;15276621;19;20010;-57
2023/10/31 07:19:12;;;;;;;2.47;0.10;;;;;;;10.57;100.00;96828.25;15279247;19;20029;-56
2023/10/31 07:24:37;;;;;;;0.10;0.10;;;;;;;10.58;100.00;96829.06;15278562;19;20663;-54
2023/10/31 07:30:02;;;;;;;0.28;0.10;;;;;;;10.60;100.00;96846.69;15277969;19;20489;-55
2023/10/31 07:35:29;;;;;;;1.40;0.10;;;;;;;10.64;100.00;96844.44;15277249;19;20022;-55
2023/10/31 07:40:54;;;;;;;0.10;0.10;;;;;;;10.68;100.00;96856.47;15268391;19;20018;-55
2023/10/31 07:46:19;;;;;;;0.40;0.17;;;;;;;10.77;100.00;96874.09;15277988;19;20014;-54
2023/10/31 07:51:48;;;;;;;0.00;0.00;;;;;;;10.84;100.00;96866.06;15277004;19;20018;-54
2023/10/31 07:57:13;;;;;;;0.45;0.15;;;;;;;10.87;100.00;96891.78;15273919;19;20481;-53
2023/10/31 08:02:38;;;;;;;0.20;0.10;;;;;;;10.91;100.00;96884.94;15275099;19;20030;-55
2023/10/31 08:08:05;;;;;;;0.10;0.10;;;;;;;10.93;100.00;96896.34;15276060;19;20018;-54
2023/10/31 08:13:30;;;;;;;0.10;0.10;;;;;;;10.94;100.00;96888.06;15266965;19;20022;-50
2023/10/31 08:18:55;;;;;;;0.73;0.30;;;;;;;10.96;100.00;96890.56;15275555;19;20028;-55
2023/10/31 08:24:23;;;;;;;0.65;0.20;;;;;;;10.95;100.00;96907.75;15270943;19;20018;-54
2023/10/31 08:29:48;;;;;;;0.10;0.10;;;;;;;10.98;100.00;96926.22;15275311;19;20029;-57
2023/10/31 08:35:13;;;;;;;0.22;0.10;;;;;;;11.02;100.00;96915.88;15270143;19;20015;-57
2023/10/31 08:40:40;;;;;;;0.80;0.20;;;;;;;11.09;100.00;96955.28;15268567;19;20010;-54
2023/10/31 08:46:06;;;;;;;1.17;0.10;;;;;;;11.25;100.00;96948.72;15269964;19;20500;-55
2023/10/31 08:51:31;;;;;;;0.80;0.10;;;;;;;11.34;100.00;96952.06;15272533;19;20377;-53
2023/10/31 08:56:58;;;;;;;0.40;0.10;;;;;;;11.34;100.00;96946.69;15268738;19;20018;-55
2023/10/31 09:02:23;;;;;;;2.58;0.10;;;;;;;11.32;100.00;96937.09;15272196;19;20497;-51
2023/10/31 09:07:48;;;;;;;0.20;0.10;;;;;;;11.29;100.00;96924.88;15240305;19;20471;-54
2023/10/31 09:13:17;;;;;;;0.10;0.10;;;;;;;11.25;100.00;96931.69;15271875;19;20360;-57
2023/10/31 09:18:43;;;;;;;0.10;0.10;;;;;;;11.23;100.00;96931.09;15265499;19;20010;-54
2023/10/31 09:24:08;;;;;;;0.40;0.10;;;;;;;11.21;100.00;96919.69;15267093;19;20022;-55
2023/10/31 09:29:35;;;;;;;0.50;0.20;;;;;;;11.31;100.00;96920.13;15266675;19;20018;-54
2023/10/31 09:35:00;;;;;;;0.10;0.10;;;;;;;11.30;100.00;96934.63;15270272;19;20498;-54
2023/10/31 09:40:26;;;;;;;0.43;0.10;;;;;;;11.29;100.00;96932.97;15270652;19;20482;-50
2023/10/31 09:45:53;;;;;;;0.70;0.10;;;;;;;11.33;100.00;96926.16;15016744;19;5001623;-56
2023/10/31 09:51:18;;;;;;;0.35;0.10;;;;;;;11.44;100.00;96929.28;15265848;19;20022;-54
2023/10/31 09:56:43;;;;;;;0.22;0.10;;;;;;;11.58;100.00;96914.78;15265007;19;20031;-49
2023/10/31 10:02:12;;;;;;;1.08;0.10;;;;;;;11.75;100.00;96912.53;15267456;19;20011;-49
2023/10/31 10:07:37;;;;;;;0.68;0.20;;;;;;;11.74;100.00;96907.31;15263807;19;20010;-49
2023/10/31 10:13:03;;;;;;;0.10;0.10;;;;;;;11.69;100.00;96891.75;15264909;19;20014;-51
2023/10/31 10:18:39;;;;;;;0.20;0.20;;;;;;;11.75;100.00;96906.28;15258947;19;20042;-50
2023/10/31 10:24:10;;;;;;;0.68;0.20;;;;;;;11.82;100.00;96901.72;15256834;19;20013;-52
2023/10/31 10:29:35;;;;;;;0.57;0.20;;;;;;;11.84;100.00;96902.34;15263639;19;20028;-51
2023/10/31 10:35:04;;;;;;;0.10;0.10;;;;;;;12.06;100.00;96912.97;15262973;19;20378;-48
2023/10/31 10:40:29;;;;;;;0.15;0.10;;;;;;;12.33;100.00;96892.19;15266514;19;20018;-48
2023/10/31 10:45:55;;;;;;;0.80;0.13;;;;;;;12.41;100.00;96900.06;15263994;19;20007;-51
2023/10/31 10:51:31;;;;;;;0.13;0.10;;;;;;;12.28;100.00;96871.22;15265861;19;20018;-54
2023/10/31 10:57:03;;;;;;;0.52;0.10;;;;;;;12.21;100.00;96848.78;15259042;19;20033;-55
2023/10/31 11:02:28;;;;;;;0.95;0.20;;;;;;;12.27;100.00;96863.31;15264014;19;20018;-57
2023/10/31 11:07:56;;;;;;;0.52;0.10;;;;;;;12.38;100.00;96883.47;15265279;19;20094;-56
2023/10/31 11:13:23;;;;;;;0.68;0.20;;;;;;;12.51;100.00;96878.03;15263457;19;20084;-55
2023/10/31 11:18:48;;;;;;;0.50;0.10;;;;;;;12.52;100.00;96887.78;15268802;19;20018;-54
2023/10/31 11:24:15;;;;;;;0.32;0.20;;;;;;;12.49;100.00;96882.81;15274014;19;20073;-57
2023/10/31 11:29:41;;;;;;;0.22;0.10;;;;;;;12.49;100.00;96897.13;15274648;19;20475;-52
2023/10/31 11:35:09;;;;;;;0.10;0.10;;;;;;;12.39;100.00;96902.13;15278491;19;20016;-57
2023/10/31 11:40:36;;;;;;;0.40;0.20;;;;;;;12.32;100.00;96925.63;15277905;19;20020;-56
2023/10/31 11:46:01;;;;;;;0.13;0.10;;;;;;;12.28;100.00;96930.63;15277268;19;20021;-54
2023/10/31 11:51:27;;;;;;;0.30;0.10;;;;;;;12.26;100.00;96943.50;15275784;19;20423;-52
2023/10/31 11:56:56;;;;;;;1.02;0.10;;;;;;;12.22;100.00;96942.25;15274782;19;20033;-55
2023/10/31 12:02:23;;;;;;;0.10;0.10;;;;;;;12.15;100.00;96952.22;15272052;19;20033;-52
2023/10/31 12:07:48;;;;;;;0.57;0.10;;;;;;;11.95;100.00;96968.38;15277974;19;20009;-51
2023/10/31 12:13:22;;;;;;;0.28;0.10;;;;;;;11.86;100.00;96965.03;15275469;19;20003;-51
2023/10/31 12:18:56;;;;;;;0.35;0.13;;;;;;;11.91;100.00;96989.56;15271683;19;20074;-51
2023/10/31 12:24:22;;;;;;;0.43;0.20;;;;;;;12.04;100.00;96988.75;15269958;19;20018;-52
2023/10/31 12:30:02;;;;;;;0.82;0.28;;;;;;;12.14;100.00;97001.84;15274770;19;20020;-52
2023/10/31 12:35:30;;;;;;;0.40;0.10;;;;;;;12.19;100.00;97015.56;15274787;19;20015;-54
2023/10/31 12:40:57;;;;;;;0.17;0.10;;;;;;;12.11;100.00;97008.47;15274250;19;20014;-54
2023/10/31 12:46:39;;;;;;;3.17;0.20;;;;;;;12.08;100.00;96999.97;15275132;19;20014;-57
2023/10/31 12:52:05;;;;;;;0.10;0.10;;;;;;;12.09;100.00;97015.13;15271139;19;20015;-54
2023/10/31 12:57:29;;;;;;;0.50;0.20;;;;;;;12.12;100.00;97022.81;15267348;19;20245;-53
2023/10/31 13:03:03;;;;;;;0.32;0.10;;;;;;;12.17;100.00;97025.75;15264076;19;20011;-56
2023/10/31 13:08:27;;;;;;;0.30;0.20;;;;;;;12.15;100.00;97019.72;15271900;19;20021;-53
2023/10/31 13:13:52;;;;;;;0.40;0.20;;;;;;;12.09;100.00;97023.22;15269196;19;20017;-55
2023/10/31 13:19:19;;;;;;;1.23;0.10;;;;;;;12.00;100.00;97009.94;15269918;19;20017;-54
2023/10/31 13:24:45;;;;;;;0.82;0.10;;;;;;;11.94;100.00;97012.59;15272482;19;20020;-54
2023/10/31 13:30:10;;;;;;;0.70;0.28;;;;;;;11.86;100.00;97024.41;15271818;19;20018;-54
2023/10/31 13:35:38;;;;;;;0.45;0.20;;;;;;;11.85;100.00;97014.63;15266575;19;20086;-55
2023/10/31 13:41:04;;;;;;;0.30;0.30;;;;;;;11.82;100.00;97023.97;15265449;19;20491;-55
2023/10/31 13:46:29;;;;;;;0.90;0.30;;;;;;;11.85;100.00;97026.28;15266468;19;20010;-56
2023/10/31 13:51:56;;;;;;;0.43;0.20;;;;;;;11.86;100.00;97013.59;15268304;19;20746;-54
2023/10/31 13:57:21;;;;;;;0.25;0.20;;;;;;;11.85;100.00;97017.34;15266550;19;20019;-54
2023/10/31 14:02:48;;;;;;;0.30;0.30;;;;;;;11.85;100.00;97038.94;15269790;19;20414;-54
2023/10/31 14:08:15;;;;;;;0.35;0.22;;;;;;;11.82;100.00;97040.16;15263735;19;20625;-53
2023/10/31 14:13:41;;;;;;;0.30;0.25;;;;;;;11.79;100.00;97055.94;15264564;19;20018;-55
2023/10/31 14:19:06;;;;;;;0.20;0.20;;;;;;;11.73;100.00;97079.16;15266215;19;20023;-53
2023/10/31 14:24:34;;;;;;;0.28;0.20;;;;;;;11.64;100.00;97083.91;15262532;19;20368;-55
2023/10/31 14:30:00;;;;;;;1.30;0.20;;;;;;;11.61;100.00;97103.16;15265409;19;20490;-54
2023/10/31 14:35:24;;;;;;;0.70;0.20;;;;;;;11.56;100.00;97108.34;15258257;19;20030;-55
2023/10/31 14:40:51;;;;;;;0.35;0.17;;;;;;;11.53;100.00;97116.84;15262821;19;20003;-53
2023/10/31 14:46:17;;;;;;;0.88;0.10;;;;;;;11.46;100.00;97129.47;15264047;19;20018;-53
2023/10/31 14:51:42;;;;;;;0.55;0.30;;;;;;;11.41;100.00;97157.84;15270084;19;20014;-52
2023/10/31 14:57:09;;;;;;;0.45;0.22;;;;;;;11.39;100.00;97159.09;15278574;19;20492;-53
2023/10/31 15:02:34;;;;;;;1.45;0.22;;;;;;;11.33;100.00;97166.09;15277651;19;20090;-54
2023/10/31 15:07:58;;;;;;;1.13;0.20;;;;;;;11.29;100.00;97172.91;15279414;19;20505;-55
2023/10/31 15:13:25;;;;;;;0.60;0.30;;;;;;;11.26;100.00;97178.69;15272951;19;20358;-51
2023/10/31 15:18:50;;;;;;;1.40;0.40;;;;;;;11.23;100.00;97192.56;15276764;19;20019;-54
2023/10/31 15:24:15;;;;;;;1.20;0.38;;;;;;;11.20;100.00;97192.97;15276050;19;20014;-51
2023/10/31 15:29:50;;;;;;;0.90;0.40;;;;;;;11.20;100.00;97198.34;15273817;19;20014;-54
2023/10/31 15:35:15;;;;;;;0.35;0.32;;;;;;;11.16;100.00;97214.09;15277767;19;20022;-55
2023/10/31 15:40:39;;;;;;;0.98;0.40;;;;;;;11.16;100.00;97224.00;15272635;19;20018;-53
2023/10/31 15:46:07;;;;;;;0.73;0.40;;;;;;;11.14;100.00;97226.06;15273807;19;20014;-54
2023/10/31 15:51:32;;;;;;;1.70;0.43;;;;;;;11.11;100.00;97238.06;15277685;19;20452;-55
2023/10/31 15:56:57;;;;;;;1.77;0.63;;;;;;;11.10;100.00;97250.72;15277863;19;20014;-55
2023/10/31 16:02:24;;;;;;;1.25;0.50;;;;;;;11.08;100.00;97260.88;15271278;19;20017;-54
2023/10/31 16:07:49;;;;;;;1.63;0.50;;;;;;;11.08;100.00;97263.56;15274743;19;20417;-52
2023/10/31 16:13:13;;;;;;;1.25;0.50;;;;;;;11.07;100.00;97285.31;15272319;19;20019;-55
2023/10/31 16:18:41;;;;;;;1.30;0.50;;;;;;;11.06;100.00;97295.25;15269979;19;20015;-53
2023/10/31 16:24:05;;;;;;;0.98;0.45;;;;;;;11.03;100.00;97309.09;15273399;19;20025;-51
2023/10/31 16:29:38;;;;;;;0.80;0.80;;;;;;;11.01;100.00;97313.03;15271947;19;20341;-51
2023/10/31 16:35:13;;;;;;;1.45;0.63;;;;;;;10.97;100.00;97323.38;15275279;19;20462;-53
2023/10/31 16:40:38;;;;;;;0.98;0.57;;;;;;;10.96;100.00;97337.88;15273691;19;20010;-50
2023/10/31 16:46:06;;;;;;;1.13;0.50;;;;;;;10.96;100.00;97348.66;15273896;19;20020;-53
2023/10/31 16:51:35;;;;;;;1.48;0.70;;;;;;;10.96;100.00;97345.94;15260603;19;20021;-53
2023/10/31 16:57:01;;;;;;;2.38;0.52;;;;;;;10.92;100.00;97350.88;15268163;19;20389;-52
2023/10/31 17:02:25;;;;;;;2.28;0.60;;;;;;;10.90;100.00;97365.56;15270986;19;20053;-54
2023/10/31 17:07:52;;;;;;;0.70;0.40;;;;;;;10.86;100.00;97369.66;15272440;19;20017;-52
2023/10/31 17:13:17;;;;;;;1.85;0.50;;;;;;;10.82;100.00;97366.50;15267811;19;20020;-53
2023/10/31 17:18:42;;;;;;;1.40;0.50;;;;;;;10.82;100.00;97376.44;15266785;19;20015;-52
2023/10/31 17:24:09;;;;;;;2.58;0.65;;;;;;;10.83;100.00;97378.94;15264210;19;20077;-53
2023/10/31 17:29:40;;;;;;;1.67;0.50;;;;;;;10.83;100.00;97395.09;15267038;19;20081;-53
2023/10/31 17:35:05;;;;;;;2.23;0.70;;;;;;;10.79;100.00;97405.44;15271846;19;20033;-54
2023/10/31 17:40:35;;;;;;;2.13;0.60;;;;;;;10.77;100.00;97409.34;15262253;19;20429;-57
2023/10/31 17:46:00;;;;;;;1.17;0.50;;;;;;;10.76;100.00;97411.19;15270148;19;20020;-54
2023/10/31 17:51:25;;;;;;;1.15;0.50;;;;;;;10.76;100.00;97424.66;15269833;19;20041;-51
2023/10/31 17:56:52;;;;;;;1.58;0.40;;;;;;;10.74;100.00;97425.88;15263320;19;20026;-54
2023/10/31 18:02:17;;;;;;;1.60;0.50;;;;;;;10.73;100.00;97438.53;15269013;19;20018;-53
2023/10/31 18:07:42;;;;;;;0.73;0.43;;;;;;;10.72;100.00;97441.38;15269805;19;20026;-51
2023/10/31 18:13:09;;;;;;;1.40;0.60;;;;;;;10.73;100.00;97443.91;15267402;19;20021;-53
2023/10/31 18:18:34;;;;;;;0.90;0.40;;;;;;;10.72;100.00;97447.63;15268232;19;20018;-54
2023/10/31 18:23:58;;;;;;;0.57;0.30;;;;;;;10.71;100.00;97454.03;15264063;19;20047;-55
2023/10/31 18:29:32;;;;;;;1.23;0.57;;;;;;;10.72;100.00;97457.53;15268233;19;20019;-55
2023/10/31 18:34:57;;;;;;;1.13;0.40;;;;;;;10.74;100.00;97464.44;15278930;19;20028;-57
2023/10/31 18:40:22;;;;;;;0.93;0.50;;;;;;;10.74;100.00;97474.38;15268529;19;20041;-54
2023/10/31 18:45:50;;;;;;;1.52;0.55;;;;;;;10.73;100.00;97470.00;15276441;19;20074;-52
2023/10/31 18:51:14;;;;;;;0.98;0.50;;;;;;;10.71;100.00;97486.34;15272880;19;20021;-53
2023/10/31 18:56:41;;;;;;;1.20;0.52;;;;;;;10.74;100.00;97474.38;15281761;19;20623;-49
2023/10/31 19:02:08;;;;;;;1.63;0.50;;;;;;;10.73;100.00;97470.84;15275445;19;20026;-54
2023/10/31 19:07:33;;;;;;;0.80;0.40;;;;;;;10.66;100.00;97461.81;15279827;19;20029;-53
2023/10/31 19:12:59;;;;;;;1.38;0.40;;;;;;;10.53;100.00;97475.09;15278318;19;20011;-50
2023/10/31 19:18:27;;;;;;;1.00;0.50;;;;;;;10.37;100.00;97474.22;15274352;19;20113;-53
2023/10/31 19:23:51;;;;;;;1.60;0.50;;;;;;;10.32;100.00;97487.38;15275345;19;20027;-54
2023/10/31 19:29:16;;;;;;;3.55;0.50;;;;;;;10.27;100.00;97496.00;15270794;19;20021;-50
2023/10/31 19:34:43;;;;;;;2.50;0.50;;;;;;;10.29;100.00;97503.91;15279405;19;20043;-50
2023/10/31 19:40:09;;;;;;;1.38;0.55;;;;;;;10.32;100.00;97503.53;15272560;19;20031;-53
2023/10/31 19:45:36;;;;;;;1.75;0.57;;;;;;;10.32;100.00;97498.16;15273838;19;20706;-58
2023/10/31 19:51:04;;;;;;;1.98;0.60;;;;;;;10.33;100.00;97499.81;15273841;19;20029;-53
2023/10/31 19:56:30;;;;;;;2.38;0.60;;;;;;;10.31;100.00;97501.84;15278426;19;20021;-54
2023/10/31 20:01:55;;;;;;;1.70;0.50;;;;;;;10.33;100.00;97500.69;15268658;19;20472;-51
2023/10/31 20:07:22;;;;;;;0.93;0.50;;;;;;;10.36;100.00;97506.69;15271411;19;20025;-55
2023/10/31 20:12:47;;;;;;;1.88;0.60;;;;;;;10.35;100.00;97513.13;15251062;19;20085;-49
2023/10/31 20:18:12;;;;;;;2.97;0.60;;;;;;;10.38;100.00;97528.94;15274484;19;20015;-52
2023/10/31 20:23:41;;;;;;;2.13;0.80;;;;;;;10.43;100.00;97530.06;15270944;19;20464;-49
2023/10/31 20:29:06;;;;;;;3.92;0.80;;;;;;;10.45;100.00;97536.09;15270800;19;20487;-53
2023/10/31 20:34:31;;;;;;;0.75;0.57;;;;;;;10.39;100.00;97526.06;15267408;19;20021;-51
2023/10/31 20:40:02;;;;;;;1.98;0.80;;;;;;;10.31;100.00;97534.16;14938291;19;10001223;-49
2023/10/31 20:45:27;;;;;;;2.00;0.73;;;;;;;10.24;100.00;97535.91;15272399;19;21093;-51
2023/10/31 20:50:51;;;;;;;1.30;0.70;;;;;;;10.13;100.00;97531.78;15271709;19;20018;-50
2023/10/31 20:56:19;;;;;;;2.10;0.68;;;;;;;10.12;100.00;97535.50;15270021;19;20527;-51
2023/10/31 21:01:43;;;;;;;1.17;0.73;;;;;;;10.08;100.00;97535.03;15266705;19;20081;-49
2023/10/31 21:07:07;;;;;;;1.85;0.90;;;;;;;10.08;100.00;97537.72;15269041;19;20215;-51
2023/10/31 21:12:35;;;;;;;2.58;0.80;;;;;;;10.12;100.00;97533.66;15271627;19;20089;-55
2023/10/31 21:17:59;;;;;;;3.40;0.90;;;;;;;10.13;100.00;97532.66;15272794;19;20015;-51
2023/10/31 21:23:28;;;;;;;2.53;0.85;;;;;;;10.12;100.00;97533.66;15271068;19;20501;-56
2023/10/31 21:28:55;;;;;;;4.63;1.02;;;;;;;10.07;100.00;97535.22;15267171;19;20039;-52
2023/10/31 21:34:20;;;;;;;5.15;0.98;;;;;;;10.01;100.00;97551.06;15264436;19;20509;-52
2023/10/31 21:39:45;;;;;;;2.65;0.90;;;;;;;9.95;100.00;97550.94;15264462;19;20018;-52
2023/10/31 21:45:13;;;;;;;2.13;0.80;;;;;;;9.89;100.00;97557.03;15270742;19;20448;-48
2023/10/31 21:50:39;;;;;;;1.85;1.00;;;;;;;9.89;100.00;97551.66;15271317;19;20014;-51
2023/10/31 21:56:04;;;;;;;2.30;0.90;;;;;;;9.85;100.00;97559.25;15270908;19;20021;-51
2023/10/31 22:01:31;;;;;;;3.60;1.13;;;;;;;9.83;100.00;97564.78;15265929;19;20444;-53
2023/10/31 22:06:56;;;;;;;2.22;1.10;;;;;;;9.86;100.00;97571.69;15276390;19;20010;-52
2023/10/31 22:12:21;;;;;;;2.20;1.27;;;;;;;9.89;100.00;97562.41;15281178;19;20023;-51
2023/10/31 22:17:50;;;;;;;2.30;1.13;;;;;;;9.91;100.00;97571.16;15213058;19;20010;-53
2023/10/31 22:23:14;;;;;;;2.63;1.20;;;;;;;9.94;100.00;97576.16;15260757;19;20019;-50
2023/10/31 22:28:39;;;;;;;3.90;1.20;;;;;;;9.98;100.00;97583.72;15265989;19;20078;-51
2023/10/31 22:34:06;;;;;;;3.90;1.15;;;;;;;10.00;100.00;97578.97;15264658;19;20025;-50
2023/10/31 22:39:31;;;;;;;5.53;1.13;;;;;;;10.06;100.00;97579.28;15267302;19;20509;-53
2023/10/31 22:44:55;;;;;;;3.63;1.20;;;;;;;10.09;100.00;97581.63;15262975;19;20018;-51
2023/10/31 22:50:23;;;;;;;2.78;1.00;;;;;;;10.08;100.00;97590.72;15266365;19;20095;-51
2023/10/31 22:55:47;;;;;;;3.20;1.05;;;;;;;10.07;100.00;97591.72;15267388;19;20472;-50
2023/10/31 23:01:12;;;;;;;3.05;1.30;;;;;;;9.96;100.00;97590.28;15263186;19;20078;-51
2023/10/31 23:06:40;;;;;;;4.15;1.20;;;;;;;9.86;100.00;97602.09;15267192;19;20014;-51
2023/10/31 23:12:06;;;;;;;4.28;1.25;;;;;;;9.83;100.00;97618.59;15267979;19;20082;-51
2023/10/31 23:17:31;;;;;;;2.42;1.30;;;;;;;9.85;100.00;97624.63;15275763;19;20421;-51
2023/10/31 23:23:00;;;;;;;2.45;1.02;;;;;;;9.81;100.00;97631.41;15276570;19;20027;-51
2023/10/31 23:28:33;;;;;;;3.30;1.20;;;;;;;9.82;100.00;97641.13;15272743;19;20046;-52
2023/10/31 23:33:58;;;;;;;2.38;1.10;;;;;;;9.85;100.00;97643.47;15273694;19;20520;-52
2023/10/31 23:39:25;;;;;;;4.03;1.20;;;;;;;9.86;100.00;97653.22;15277556;19;20024;-49
2023/10/31 23:44:50;;;;;;;3.00;0.85;;;;;;;9.81;100.00;97642.16;15278595;19;20019;-53
2023/10/31 23:50:15;;;;;;;1.50;0.90;;;;;;;9.87;100.00;97646.00;15272420;19;20440;-49
2023/10/31 23:55:47;;;;;;;1.65;0.80;;;;;;;9.90;100.00;97653.69;15277795;19;20022;-52
